createdAt,value
2022-12-11T00:00:51.991Z,23.20
2022-12-11T00:03:19.196Z,25.17
2022-12-11T00:05:46.271Z,23.98
2022-12-11T00:08:14.028Z,23.77
2022-12-11T00:10:48.415Z,24.38
2022-12-11T00:13:15.349Z,24.33
2022-12-11T00:15:42.101Z,24.23
2022-12-11T00:18:14.001Z,24.10
2022-12-11T00:20:41.503Z,25.23
2022-12-11T00:23:08.383Z,24.08
2022-12-11T00:25:35.505Z,23.37
2022-12-11T00:28:06.306Z,23.63
2022-12-11T00:30:33.176Z,23.67
2022-12-11T00:33:01.714Z,22.25
2022-12-11T00:35:29.265Z,23.23
2022-12-11T00:37:55.930Z,23.63
2022-12-11T00:40:22.704Z,23.38
2022-12-11T00:42:51.447Z,22.95
2022-12-11T00:45:21.191Z,24.15
2022-12-11T00:47:47.931Z,22.90
2022-12-11T00:50:14.602Z,21.97
2022-12-11T00:52:41.507Z,24.40
2022-12-11T00:55:09.721Z,25.33
2022-12-11T01:03:21.623Z,25.00
2022-12-11T01:11:27.700Z,25.13
2022-12-11T01:13:55.191Z,23.70
2022-12-11T01:16:23.468Z,25.30
2022-12-11T01:18:50.620Z,25.77
2022-12-11T01:21:22.766Z,26.75
2022-12-11T01:23:51.126Z,28.05
2022-12-11T01:26:19.012Z,29.90
2022-12-11T01:28:49.796Z,27.30
2022-12-11T01:31:18.342Z,26.20
2022-12-11T01:33:45.314Z,26.75
2022-12-11T01:36:16.657Z,27.75
2022-12-11T01:38:43.838Z,26.88
2022-12-11T01:41:11.400Z,26.07
2022-12-11T01:44:06.976Z,26.48
2022-12-11T01:46:35.961Z,27.45
2022-12-11T01:49:05.983Z,25.73
2022-12-11T01:51:35.962Z,28.05
2022-12-11T01:54:07.365Z,27.23
2022-12-11T01:56:35.841Z,26.05
2022-12-11T01:59:07.236Z,27.25
2022-12-11T02:01:44.591Z,28.52
2022-12-11T02:04:12.062Z,25.67
2022-12-11T02:06:41.717Z,28.83
2022-12-11T02:09:14.631Z,28.00
2022-12-11T02:11:50.293Z,25.75
2022-12-11T02:14:43.349Z,27.25
2022-12-11T02:17:21.858Z,28.52
2022-12-11T02:20:05.156Z,26.97
2022-12-11T02:22:40.851Z,26.00
2022-12-11T02:25:20.842Z,26.83
2022-12-11T02:28:14.698Z,24.55
2022-12-11T02:30:45.257Z,25.67
2022-12-11T02:33:13.701Z,26.73
2022-12-11T02:35:43.853Z,26.83
2022-12-11T02:38:19.682Z,26.10
2022-12-11T02:40:49.994Z,26.40
2022-12-11T02:43:18.537Z,25.50
2022-12-11T02:45:46.876Z,27.37
2022-12-11T02:48:15.522Z,25.45
2022-12-11T02:50:45.942Z,26.52
2022-12-11T02:53:16.029Z,26.00
2022-12-11T02:55:43.708Z,24.38
2022-12-11T02:58:23.565Z,26.17
2022-12-11T03:00:50.386Z,26.40
2022-12-11T03:03:17.083Z,23.77
2022-12-11T03:05:46.086Z,26.15
2022-12-11T03:08:18.451Z,24.98
2022-12-11T03:10:46.002Z,24.30
2022-12-11T03:13:16.107Z,24.38
2022-12-11T03:15:46.808Z,25.13
2022-12-11T03:18:26.691Z,23.75
2022-12-11T03:21:13.724Z,23.30
2022-12-11T03:23:54.212Z,25.17
2022-12-11T03:26:22.729Z,24.15
2022-12-11T03:29:02.484Z,24.25
2022-12-11T03:31:43.416Z,25.00
2022-12-11T03:34:19.628Z,23.10
2022-12-11T03:36:48.489Z,24.37
2022-12-11T03:39:27.191Z,24.55
2022-12-11T03:41:55.127Z,24.50
2022-12-11T03:44:24.031Z,24.75
2022-12-11T03:46:52.310Z,25.02
2022-12-11T03:49:32.254Z,22.77
2022-12-11T03:52:09.024Z,24.50
2022-12-11T03:54:38.390Z,24.27
2022-12-11T03:57:22.230Z,24.83
2022-12-11T03:59:52.042Z,23.92
2022-12-11T04:02:26.503Z,23.77
2022-12-11T04:04:53.421Z,23.13
2022-12-11T04:07:55.551Z,24.17
2022-12-11T04:10:26.019Z,23.65
2022-12-11T04:12:56.812Z,22.15
2022-12-11T04:15:25.570Z,22.33
2022-12-11T04:18:12.293Z,22.58
2022-12-11T04:21:00.566Z,23.88
2022-12-11T04:23:46.939Z,24.23
2022-12-11T04:26:33.046Z,20.83
2022-12-11T04:34:43.754Z,21.67
2022-12-11T04:37:13.580Z,22.45
2022-12-11T04:39:42.587Z,21.85
2022-12-11T04:47:48.353Z,20.80
2022-12-11T04:53:22.624Z,20.15
2022-12-11T04:55:53.165Z,21.27
2022-12-11T05:01:43.747Z,21.15
2022-12-11T05:17:35.518Z,19.77
2022-12-11T05:20:04.762Z,18.70
2022-12-11T05:22:45.890Z,19.40
2022-12-11T05:25:24.560Z,19.73
2022-12-11T05:30:47.376Z,20.05
2022-12-11T05:33:20.402Z,18.88
2022-12-11T05:39:06.537Z,20.13
2022-12-11T05:44:27.022Z,19.15
2022-12-11T05:46:53.648Z,20.08
2022-12-11T05:49:24.641Z,18.90
2022-12-11T05:51:53.979Z,19.03
2022-12-11T05:54:20.577Z,18.92
2022-12-11T05:56:50.199Z,17.58
2022-12-11T05:59:18.858Z,18.75
2022-12-11T06:01:45.857Z,18.60
2022-12-11T06:04:13.583Z,18.97
2022-12-11T06:06:40.492Z,16.75
2022-12-11T06:09:07.597Z,18.50
2022-12-11T06:11:35.494Z,17.67
2022-12-11T06:14:03.426Z,18.13
2022-12-11T06:16:30.185Z,18.70
2022-12-11T06:18:58.342Z,17.80
2022-12-11T06:21:28.001Z,18.88
2022-12-11T06:23:56.509Z,18.40
2022-12-11T06:26:23.995Z,17.80
2022-12-11T06:28:50.796Z,17.40
2022-12-11T06:31:18.426Z,18.23
2022-12-11T06:33:45.427Z,18.77
2022-12-11T06:36:15.682Z,17.65
2022-12-11T06:38:42.531Z,18.83
2022-12-11T06:41:09.550Z,18.67
2022-12-11T06:43:38.254Z,19.17
2022-12-11T06:46:06.275Z,18.52
2022-12-11T06:48:33.264Z,19.23
2022-12-11T06:50:59.989Z,18.85
2022-12-11T06:53:26.569Z,19.37
2022-12-11T06:55:53.178Z,17.60
2022-12-11T06:58:19.814Z,18.27
2022-12-11T07:00:46.493Z,17.63
2022-12-11T07:03:13.726Z,19.98
2022-12-11T07:05:40.442Z,18.90
2022-12-11T07:08:07.385Z,19.20
2022-12-11T07:10:34.212Z,19.10
2022-12-11T07:13:00.778Z,19.83
2022-12-11T07:15:27.478Z,19.92
2022-12-11T07:17:54.177Z,19.80
2022-12-11T07:20:21.176Z,20.48
2022-12-11T07:22:54.272Z,19.45
2022-12-11T07:25:21.254Z,20.20
2022-12-11T07:27:48.014Z,18.67
2022-12-11T07:30:15.551Z,20.30
2022-12-11T07:32:42.340Z,20.77
2022-12-11T07:35:10.575Z,21.00
2022-12-11T07:37:40.574Z,19.67
2022-12-11T07:40:08.099Z,20.67
2022-12-11T07:42:34.669Z,20.83
2022-12-11T07:45:01.274Z,20.63
2022-12-11T07:47:27.908Z,20.60
2022-12-11T07:49:54.523Z,20.02
2022-12-11T07:52:21.100Z,21.80
2022-12-11T07:54:47.773Z,20.53
2022-12-11T07:57:14.667Z,20.33
2022-12-11T07:59:41.763Z,20.98
2022-12-11T08:02:11.817Z,20.27
2022-12-11T08:04:38.770Z,20.60
2022-12-11T08:07:05.385Z,20.63
2022-12-11T08:09:32.021Z,20.67
2022-12-11T08:11:58.642Z,20.33
2022-12-11T08:14:25.318Z,20.80
2022-12-11T08:16:52.008Z,21.77
2022-12-11T08:19:19.105Z,21.20
2022-12-11T08:21:45.777Z,22.35
2022-12-11T08:24:12.417Z,21.95
2022-12-11T08:26:39.599Z,22.00
2022-12-11T08:29:06.251Z,22.17
2022-12-11T08:31:33.164Z,21.80
2022-12-11T08:34:00.203Z,21.83
2022-12-11T08:36:26.925Z,21.52
2022-12-11T08:38:55.469Z,21.30
2022-12-11T08:41:28.210Z,22.50
2022-12-11T08:43:56.356Z,21.87
2022-12-11T08:46:25.644Z,21.33
2022-12-11T08:48:52.957Z,22.85
2022-12-11T08:51:22.761Z,21.00
2022-12-11T08:53:50.999Z,21.08
2022-12-11T08:56:20.516Z,21.77
2022-12-11T08:58:48.228Z,21.20
2022-12-11T09:01:18.223Z,20.98
2022-12-11T09:03:45.155Z,20.45
2022-12-11T09:06:15.069Z,21.83
2022-12-11T09:08:48.695Z,20.93
2022-12-11T09:11:24.304Z,20.63
2022-12-11T09:13:51.565Z,21.58
2022-12-11T09:16:20.338Z,20.10
2022-12-11T09:18:48.351Z,20.40
2022-12-11T09:21:17.449Z,21.30
2022-12-11T09:23:44.692Z,21.83
2022-12-11T09:26:13.854Z,21.77
2022-12-11T09:28:46.193Z,22.40
2022-12-11T09:31:16.649Z,20.65
2022-12-11T09:33:43.854Z,20.87
2022-12-11T09:36:11.908Z,21.70
2022-12-11T09:38:38.946Z,20.05
2022-12-11T09:41:21.383Z,21.08
2022-12-11T09:43:59.031Z,20.15
2022-12-11T09:46:33.575Z,20.10
2022-12-11T09:49:03.720Z,21.20
2022-12-11T09:51:36.134Z,19.27
2022-12-11T09:54:04.476Z,18.63
2022-12-11T09:56:41.705Z,19.88
2022-12-11T09:59:23.077Z,19.63
2022-12-11T10:02:14.474Z,20.23
2022-12-11T10:04:55.572Z,19.67
2022-12-11T10:07:26.250Z,19.27
2022-12-11T10:10:20.526Z,18.92
2022-12-11T10:13:28.987Z,19.17
2022-12-11T10:16:31.933Z,18.25
2022-12-11T10:18:59.799Z,18.80
2022-12-11T10:21:26.989Z,18.92
2022-12-11T10:24:01.001Z,18.92
2022-12-11T10:26:29.463Z,17.93
2022-12-11T10:29:00.814Z,17.52
2022-12-11T10:31:53.454Z,18.38
2022-12-11T10:34:34.598Z,17.42
2022-12-11T10:37:01.655Z,17.40
2022-12-11T10:39:28.649Z,17.90
2022-12-11T10:41:56.619Z,18.90
2022-12-11T10:44:31.358Z,17.65
2022-12-11T10:47:09.945Z,18.38
2022-12-11T10:49:38.605Z,17.60
2022-12-11T10:52:19.709Z,17.50
2022-12-11T10:54:54.230Z,17.58
2022-12-11T10:57:31.104Z,18.70
2022-12-11T10:59:59.173Z,18.67
2022-12-11T11:02:32.851Z,17.27
2022-12-11T11:05:01.440Z,17.83
2022-12-11T11:07:33.153Z,17.63
2022-12-11T11:10:13.921Z,17.08
2022-12-11T11:12:45.003Z,18.17
2022-12-11T11:15:26.557Z,18.50
2022-12-11T11:17:56.298Z,17.50
2022-12-11T11:20:29.159Z,17.92
2022-12-11T11:23:14.640Z,17.70
2022-12-11T11:25:50.864Z,16.70
2022-12-11T11:28:25.729Z,16.88
2022-12-11T11:31:09.709Z,16.60
2022-12-11T11:33:44.859Z,17.23
2022-12-11T11:36:24.331Z,17.38
2022-12-11T11:39:17.757Z,18.40
2022-12-11T11:42:14.906Z,16.50
2022-12-11T11:44:50.939Z,16.67
2022-12-11T11:47:24.258Z,15.90
2022-12-11T11:50:08.447Z,15.80
2022-12-11T11:52:45.290Z,16.33
2022-12-11T11:55:43.937Z,15.77
2022-12-11T11:58:19.278Z,15.63
2022-12-11T12:00:46.118Z,14.90
2022-12-11T12:03:16.394Z,15.30
2022-12-11T12:05:49.980Z,15.60
2022-12-11T12:08:40.789Z,15.23
2022-12-11T12:11:13.386Z,14.67
2022-12-11T12:14:28.799Z,14.73
2022-12-11T12:17:09.089Z,15.02
2022-12-11T12:20:10.936Z,14.40
2022-12-11T12:22:45.114Z,14.45
2022-12-11T12:25:32.922Z,14.40
2022-12-11T12:28:30.667Z,14.65
2022-12-11T12:31:21.909Z,14.48
2022-12-11T12:34:24.014Z,14.63
2022-12-11T12:37:21.773Z,14.18
2022-12-11T12:40:00.059Z,13.33
2022-12-11T12:42:47.926Z,14.77
2022-12-11T12:45:41.143Z,14.60
2022-12-11T12:48:09.718Z,13.23
2022-12-11T12:50:44.673Z,14.60
2022-12-11T12:53:19.827Z,14.37
2022-12-11T12:55:48.121Z,14.50
2022-12-11T12:58:29.220Z,15.07
2022-12-11T13:01:08.648Z,14.82
2022-12-11T13:03:57.641Z,15.38
2022-12-11T13:06:29.500Z,16.60
2022-12-11T13:08:56.409Z,15.75
2022-12-11T13:11:33.570Z,15.88
2022-12-11T13:14:21.698Z,14.30
2022-12-11T13:16:50.634Z,14.88
2022-12-11T13:19:23.420Z,15.23
2022-12-11T13:22:13.186Z,15.40
2022-12-11T13:24:51.635Z,16.20
2022-12-11T13:27:34.576Z,16.10
2022-12-11T13:30:28.314Z,16.20
2022-12-11T13:33:03.660Z,16.07
2022-12-11T13:35:32.335Z,15.57
2022-12-11T13:38:06.972Z,15.77
2022-12-11T13:40:41.934Z,16.30
2022-12-11T13:43:24.596Z,15.57
2022-12-11T13:45:57.203Z,15.97
2022-12-11T13:48:34.898Z,16.77
2022-12-11T13:51:01.814Z,16.52
2022-12-11T13:53:29.338Z,17.38
2022-12-11T13:56:18.920Z,17.02
2022-12-11T13:58:45.513Z,15.80
2022-12-11T14:01:27.524Z,17.50
2022-12-11T14:04:08.495Z,16.30
2022-12-11T14:06:36.890Z,16.50
2022-12-11T14:09:05.346Z,17.15
2022-12-11T14:11:37.478Z,16.90
2022-12-11T14:14:08.498Z,16.58
2022-12-11T14:16:35.341Z,16.70
2022-12-11T14:19:09.702Z,16.98
2022-12-11T14:21:37.156Z,17.27
2022-12-11T14:24:06.400Z,17.70
2022-12-11T14:26:35.153Z,17.83
2022-12-11T14:29:03.165Z,17.05
2022-12-11T14:31:44.281Z,18.08
2022-12-11T14:34:18.061Z,18.20
2022-12-11T14:36:47.007Z,18.27
2022-12-11T14:39:31.135Z,18.35
2022-12-11T14:42:05.594Z,17.88
2022-12-11T14:44:48.114Z,17.33
2022-12-11T14:47:26.037Z,16.17
2022-12-11T14:50:02.687Z,17.23
2022-12-11T14:52:35.676Z,17.95
2022-12-11T14:55:25.141Z,17.38
2022-12-11T14:57:57.246Z,18.83
2022-12-11T15:00:35.921Z,18.13
2022-12-11T15:03:19.506Z,18.57
2022-12-11T15:05:57.210Z,18.08
2022-12-11T15:08:31.189Z,17.30
2022-12-11T15:11:05.493Z,17.77
2022-12-11T15:13:33.432Z,17.73
2022-12-11T15:16:00.584Z,18.27
2022-12-11T15:18:33.595Z,18.77
2022-12-11T15:21:06.826Z,18.40
2022-12-11T15:23:38.346Z,18.35
2022-12-11T15:26:05.214Z,17.90
2022-12-11T15:28:35.240Z,18.90
2022-12-11T15:31:07.971Z,17.13
2022-12-11T15:33:46.757Z,18.00
2022-12-11T15:36:26.569Z,17.63
2022-12-11T15:38:53.283Z,18.38
2022-12-11T15:41:21.397Z,17.57
2022-12-11T15:43:48.097Z,18.25
2022-12-11T15:46:14.923Z,18.20
2022-12-11T15:48:41.650Z,17.48
2022-12-11T15:51:09.919Z,18.35
2022-12-11T15:53:36.995Z,18.07
2022-12-11T15:56:03.926Z,17.95
2022-12-11T15:58:30.755Z,18.48
2022-12-11T16:00:57.831Z,16.58
2022-12-11T16:03:24.873Z,17.27
2022-12-11T16:05:52.869Z,18.03
2022-12-11T16:08:22.210Z,16.83
2022-12-11T16:10:51.171Z,17.17
2022-12-11T16:13:17.785Z,18.00
2022-12-11T16:15:46.998Z,18.13
2022-12-11T16:18:22.341Z,19.20
2022-12-11T16:20:49.870Z,19.38
2022-12-11T16:23:17.208Z,17.27
2022-12-11T16:25:45.423Z,18.25
2022-12-11T16:28:14.049Z,17.67
2022-12-11T16:30:41.144Z,17.70
2022-12-11T16:33:12.402Z,17.92
2022-12-11T16:35:41.260Z,17.90
2022-12-11T16:38:08.237Z,16.20
2022-12-11T16:40:34.905Z,18.08
2022-12-11T16:43:02.662Z,18.37
2022-12-11T16:45:29.296Z,17.08
2022-12-11T16:47:55.917Z,17.27
2022-12-11T16:50:23.518Z,18.33
2022-12-11T16:52:50.170Z,18.63
2022-12-11T16:55:20.936Z,17.33
2022-12-11T16:57:47.562Z,16.33
2022-12-11T17:00:14.500Z,17.77
2022-12-11T17:02:41.187Z,17.10
2022-12-11T17:05:08.419Z,18.23
2022-12-11T17:07:35.352Z,17.77
2022-12-11T17:10:03.183Z,16.52
2022-12-11T17:12:30.313Z,16.83
2022-12-11T17:14:57.093Z,16.35
2022-12-11T17:17:24.125Z,16.85
2022-12-11T17:19:50.739Z,17.33
2022-12-11T17:22:17.426Z,18.30
2022-12-11T17:24:44.054Z,16.88
2022-12-11T17:27:10.810Z,16.98
2022-12-11T17:29:37.774Z,17.45
2022-12-11T17:32:04.652Z,17.37
2022-12-11T17:34:37.633Z,17.27
2022-12-11T17:37:05.424Z,17.73
2022-12-11T17:39:32.165Z,17.70
2022-12-11T17:41:58.991Z,18.92
2022-12-11T17:44:26.621Z,17.63
2022-12-11T17:46:53.540Z,17.55
2022-12-11T17:49:20.249Z,17.88
2022-12-11T17:51:47.753Z,17.73
2022-12-11T17:54:14.429Z,17.42
2022-12-11T17:56:41.282Z,18.67
2022-12-11T17:59:07.889Z,17.17
2022-12-11T18:01:34.695Z,17.05
2022-12-11T18:04:01.833Z,16.10
2022-12-11T18:06:29.357Z,16.52
2022-12-11T18:08:56.818Z,15.67
2022-12-11T18:11:23.926Z,15.30
2022-12-11T18:13:52.523Z,16.63
2022-12-11T18:16:29.357Z,15.75
2022-12-11T18:18:56.500Z,15.70
2022-12-11T18:21:27.695Z,15.63
2022-12-11T18:23:54.794Z,15.63
2022-12-11T18:26:21.864Z,15.30
2022-12-11T18:28:50.050Z,15.05
2022-12-11T18:31:18.135Z,16.23
2022-12-11T18:33:45.640Z,16.00
2022-12-11T18:36:14.544Z,15.45
2022-12-11T18:38:42.154Z,14.68
2022-12-11T18:41:11.084Z,15.75
2022-12-11T18:43:37.723Z,15.85
2022-12-11T18:46:09.592Z,14.90
2022-12-11T18:48:36.447Z,15.10
2022-12-11T18:51:07.404Z,15.23
2022-12-11T18:53:34.757Z,15.57
2022-12-11T18:56:10.029Z,15.73
2022-12-11T18:58:36.836Z,15.47
2022-12-11T19:01:12.181Z,15.77
2022-12-11T19:03:38.874Z,15.55
2022-12-11T19:06:08.371Z,14.18
2022-12-11T19:08:35.163Z,14.52
2022-12-11T19:11:01.955Z,13.83
2022-12-11T19:13:28.597Z,14.63
2022-12-11T19:15:55.375Z,14.35
2022-12-11T19:18:22.049Z,16.05
2022-12-11T19:20:50.916Z,14.55
2022-12-11T19:23:20.865Z,14.73
2022-12-11T19:25:48.339Z,15.75
2022-12-11T19:28:16.172Z,14.98
2022-12-11T19:30:44.843Z,14.48
2022-12-11T19:33:11.934Z,14.45
2022-12-11T19:35:38.693Z,15.40
2022-12-11T19:38:05.311Z,15.45
2022-12-11T19:40:31.896Z,14.73
2022-12-11T19:42:58.527Z,14.93
2022-12-11T19:45:25.190Z,15.13
2022-12-11T19:47:51.849Z,13.63
2022-12-11T19:50:18.522Z,14.27
2022-12-11T19:52:46.542Z,16.38
2022-12-11T19:55:14.883Z,14.75
2022-12-11T19:57:41.583Z,15.25
2022-12-11T20:00:08.632Z,14.13
2022-12-11T20:02:35.354Z,15.10
2022-12-11T20:05:02.006Z,15.40
2022-12-11T20:07:30.780Z,14.93
2022-12-11T20:09:57.573Z,14.77
2022-12-11T20:12:24.424Z,14.60
2022-12-11T20:14:51.101Z,15.13
2022-12-11T20:17:17.722Z,15.23
2022-12-11T20:19:44.460Z,15.32
2022-12-11T20:22:11.523Z,14.55
2022-12-11T20:24:38.206Z,15.43
2022-12-11T20:27:05.013Z,16.00
2022-12-11T20:29:32.129Z,15.48
2022-12-11T20:32:00.257Z,15.60
2022-12-11T20:34:27.647Z,15.30
2022-12-11T20:36:54.544Z,15.23
2022-12-11T20:39:21.281Z,15.57
2022-12-11T20:41:47.919Z,14.98
2022-12-11T20:44:15.013Z,14.52
2022-12-11T20:46:41.645Z,14.75
2022-12-11T20:49:12.935Z,15.03
2022-12-11T20:51:40.245Z,14.15
2022-12-11T20:54:07.254Z,14.25
2022-12-11T20:56:33.880Z,15.50
2022-12-11T20:59:00.886Z,14.25
2022-12-11T21:01:31.030Z,14.23
2022-12-11T21:03:58.509Z,14.00
2022-12-11T21:06:26.708Z,14.05
2022-12-11T21:08:54.022Z,13.43
2022-12-11T21:11:20.759Z,14.25
2022-12-11T21:13:47.352Z,13.97
2022-12-11T21:16:14.193Z,13.30
2022-12-11T21:18:41.588Z,13.70
2022-12-11T21:21:08.176Z,13.98
2022-12-11T21:23:35.182Z,13.95
2022-12-11T21:26:01.829Z,14.03
2022-12-11T21:28:34.984Z,14.10
2022-12-11T21:31:07.322Z,14.25
2022-12-11T21:33:34.517Z,14.93
2022-12-11T21:36:02.000Z,14.32
2022-12-11T21:38:29.306Z,13.83
2022-12-11T21:40:59.081Z,14.15
2022-12-11T21:43:25.734Z,15.70
2022-12-11T21:46:00.858Z,13.65
2022-12-11T21:48:27.892Z,14.38
2022-12-11T21:50:54.585Z,13.63
2022-12-11T21:53:21.175Z,13.50
2022-12-11T21:55:48.102Z,14.35
2022-12-11T21:58:14.721Z,14.93
2022-12-11T22:00:41.451Z,14.32
2022-12-11T22:03:08.079Z,14.17
2022-12-11T22:05:34.745Z,13.50
2022-12-11T22:08:01.425Z,14.38
2022-12-11T22:10:28.986Z,15.13
2022-12-11T22:12:56.106Z,14.70
2022-12-11T22:15:22.838Z,14.83
2022-12-11T22:17:49.477Z,14.80
2022-12-11T22:20:16.108Z,14.10
2022-12-11T22:22:42.826Z,14.40
2022-12-11T22:25:10.047Z,14.27
2022-12-11T22:27:37.105Z,14.43
2022-12-11T22:30:04.445Z,13.80
2022-12-11T22:32:31.074Z,14.30
2022-12-11T22:34:57.811Z,14.52
2022-12-11T22:37:25.118Z,15.75
2022-12-11T22:39:51.814Z,15.17
2022-12-11T22:42:18.465Z,14.35
2022-12-11T22:44:45.110Z,15.05
2022-12-11T22:47:12.193Z,14.40
2022-12-11T22:49:38.921Z,14.35
2022-12-11T22:52:05.597Z,14.73
2022-12-11T22:54:32.634Z,14.55
2022-12-11T22:56:59.221Z,13.95
2022-12-11T22:59:25.814Z,14.85
2022-12-11T23:01:52.430Z,14.38
2022-12-11T23:04:19.021Z,13.53
2022-12-11T23:06:45.619Z,14.80
2022-12-11T23:09:12.339Z,14.90
2022-12-11T23:11:39.932Z,15.50
2022-12-11T23:14:11.086Z,14.60
2022-12-11T23:16:37.778Z,14.33
2022-12-11T23:19:04.743Z,14.68
2022-12-11T23:21:31.505Z,14.45
2022-12-11T23:23:58.650Z,14.93
2022-12-11T23:26:28.134Z,15.95
2022-12-11T23:28:56.330Z,14.30
2022-12-11T23:31:23.791Z,14.35
2022-12-11T23:33:50.926Z,15.50
2022-12-11T23:36:18.345Z,15.98
2022-12-11T23:38:49.547Z,14.55
2022-12-11T23:41:19.540Z,15.60
2022-12-11T23:43:46.253Z,14.98
2022-12-11T23:46:16.157Z,15.50
2022-12-11T23:48:43.081Z,14.93
2022-12-11T23:51:12.970Z,15.13
2022-12-11T23:53:39.839Z,14.73
2022-12-11T23:56:10.031Z,14.52
2022-12-11T23:58:37.910Z,15.68
